createdAt,value
2018-01-06T00:00:29.710Z,4.19
2018-01-06T00:01:39.870Z,4.11
2018-01-06T00:02:50.038Z,4.2
2018-01-06T00:04:00.237Z,4.18
2018-01-06T00:05:10.556Z,4.13
2018-01-06T00:06:20.484Z,4.08
2018-01-06T00:07:30.674Z,4.15
2018-01-06T00:08:40.824Z,4.11
2018-01-06T00:09:50.993Z,4.16
2018-01-06T00:11:01.136Z,4.2
2018-01-06T00:12:11.305Z,4.12
2018-01-06T00:13:21.461Z,4.16
2018-01-06T00:14:31.678Z,4.19
2018-01-06T00:15:41.810Z,4.18
2018-01-06T00:16:51.938Z,4.15
2018-01-06T00:18:02.114Z,4.15
2018-01-06T00:19:11.997Z,4.18
2018-01-06T00:20:22.359Z,4.19
2018-01-06T00:21:32.523Z,4.18
2018-01-06T00:22:42.421Z,4.11
2018-01-06T00:23:52.622Z,4.04
2018-01-06T00:25:02.413Z,4.05
2018-01-06T00:26:12.558Z,4.05
2018-01-06T00:27:22.770Z,4.2
2018-01-06T00:28:32.976Z,4.19
2018-01-06T00:29:43.280Z,4.16
2018-01-06T00:30:53.486Z,4.15
2018-01-06T00:32:03.683Z,4.03
2018-01-06T00:33:13.863Z,4.05
2018-01-06T00:34:24.095Z,4.08
2018-01-06T00:35:34.264Z,4.03
2018-01-06T00:36:44.568Z,4.12
2018-01-06T00:37:54.788Z,4.08
2018-01-06T00:39:05.006Z,4
2018-01-06T00:40:15.267Z,4.13
2018-01-06T00:41:25.461Z,4.03
2018-01-06T00:42:35.737Z,4.15
2018-01-06T00:43:45.885Z,4.18
2018-01-06T00:44:56.091Z,4.2
2018-01-06T00:46:06.333Z,4.16
2018-01-06T00:47:16.509Z,4
2018-01-06T00:48:26.733Z,4.12
2018-01-06T00:49:36.984Z,4.15
2018-01-06T00:50:46.868Z,4.16
2018-01-06T00:51:57.010Z,4.08
2018-01-06T00:53:07.156Z,4.19
2018-01-06T00:54:17.284Z,4.09
2018-01-06T00:55:27.453Z,4.13
2018-01-06T00:56:37.588Z,4.11
2018-01-06T00:57:47.732Z,4.13
2018-01-06T00:58:57.877Z,4.23
2018-01-06T01:00:07.511Z,4.11
2018-01-06T01:01:17.708Z,4.18
2018-01-06T01:02:27.863Z,4.18
2018-01-06T01:03:39.076Z,4.16
2018-01-06T01:04:49.230Z,4.05
2018-01-06T01:05:59.168Z,4.11
2018-01-06T01:07:09.395Z,4.11
2018-01-06T01:08:19.584Z,4.27
2018-01-06T01:09:29.840Z,4.11
2018-01-06T01:10:40.030Z,4.11
2018-01-06T01:11:50.216Z,4.2
2018-01-06T01:13:00.072Z,4.08
2018-01-06T01:14:10.246Z,4.08
2018-01-06T01:15:20.412Z,4.23
2018-01-06T01:16:30.545Z,4.16
2018-01-06T01:17:40.758Z,4.12
2018-01-06T01:18:50.912Z,4
2018-01-06T01:20:01.062Z,4.09
2018-01-06T01:21:11.183Z,4.12
2018-01-06T01:22:21.321Z,4.09
2018-01-06T01:23:31.500Z,4.12
2018-01-06T01:24:41.768Z,4
2018-01-06T01:25:52.038Z,4.08
2018-01-06T01:27:02.207Z,4.01
2018-01-06T01:28:12.332Z,4.09
2018-01-06T01:29:22.579Z,4.12
2018-01-06T01:30:32.713Z,4.15
2018-01-06T01:31:42.830Z,4.08
2018-01-06T01:32:52.977Z,4
2018-01-06T01:34:03.134Z,4.13
2018-01-06T01:35:13.342Z,4.22
2018-01-06T01:36:23.452Z,4.2
2018-01-06T01:37:33.583Z,4.22
2018-01-06T01:38:43.903Z,4.18
2018-01-06T01:39:54.108Z,4.18
2018-01-06T01:41:04.314Z,4.2
2018-01-06T01:42:14.456Z,4.25
2018-01-06T01:43:24.654Z,4.22
2018-01-06T01:44:34.840Z,4.19
2018-01-06T01:45:44.970Z,4.15
2018-01-06T01:46:55.113Z,4.23
2018-01-06T01:48:05.270Z,4.31
2018-01-06T01:49:15.417Z,4.23
2018-01-06T01:50:25.629Z,4.16
2018-01-06T01:51:35.864Z,4.18
2018-01-06T01:52:46.077Z,4.18
2018-01-06T01:53:56.065Z,4.19
2018-01-06T01:55:06.302Z,4.23
2018-01-06T01:56:16.576Z,4.23
2018-01-06T01:57:26.526Z,4.27
2018-01-06T01:58:36.687Z,4.3
2018-01-06T01:59:46.860Z,4.28
2018-01-06T02:00:56.740Z,4.38
2018-01-06T02:02:06.869Z,4.36
2018-01-06T02:03:17.000Z,4.28
2018-01-06T02:04:27.268Z,4.36
2018-01-06T02:05:37.231Z,4.31
2018-01-06T02:06:47.441Z,4.27
2018-01-06T02:07:57.561Z,4.27
2018-01-06T02:09:07.668Z,4.23
2018-01-06T02:10:17.841Z,4.19
2018-01-06T02:11:28.143Z,4.16
2018-01-06T02:12:38.317Z,4.09
2018-01-06T02:13:48.575Z,4.12
2018-01-06T02:14:58.776Z,4.08
2018-01-06T02:16:09.019Z,4.08
2018-01-06T02:17:19.175Z,4.05
2018-01-06T02:18:29.379Z,4.11
2018-01-06T02:19:39.513Z,3.98
2018-01-06T02:20:49.625Z,4
2018-01-06T02:21:59.742Z,4.04
2018-01-06T02:23:09.627Z,3.98
2018-01-06T02:24:19.775Z,4.04
2018-01-06T02:25:30.012Z,3.94
2018-01-06T02:26:40.139Z,4.01
2018-01-06T02:27:50.061Z,3.97
2018-01-06T02:29:00.172Z,3.97
2018-01-06T02:30:10.317Z,3.97
2018-01-06T02:31:20.481Z,4.08
2018-01-06T02:32:30.702Z,4
2018-01-06T02:33:40.877Z,3.95
2018-01-06T02:34:50.817Z,3.98
2018-01-06T02:36:00.932Z,3.97
2018-01-06T02:37:11.057Z,3.94
2018-01-06T02:38:21.204Z,3.91
2018-01-06T02:39:31.350Z,3.94
2018-01-06T02:40:41.494Z,3.93
2018-01-06T02:41:51.693Z,3.91
2018-01-06T02:43:01.813Z,3.94
2018-01-06T02:44:11.988Z,3.85
2018-01-06T02:45:22.172Z,3.85
2018-01-06T02:46:32.337Z,3.86
2018-01-06T02:47:42.612Z,3.82
2018-01-06T02:48:52.735Z,3.83
2018-01-06T02:50:02.856Z,3.87
2018-01-06T02:51:13.031Z,3.76
2018-01-06T02:52:23.158Z,3.79
2018-01-06T02:53:33.325Z,3.77
2018-01-06T02:54:43.492Z,3.69
2018-01-06T02:55:53.632Z,3.72
2018-01-06T02:57:03.755Z,3.73
2018-01-06T02:58:14.008Z,3.79
2018-01-06T02:59:24.281Z,3.69
2018-01-06T03:00:34.480Z,3.68
2018-01-06T03:01:44.669Z,3.76
2018-01-06T03:02:54.863Z,3.73
2018-01-06T03:04:05.184Z,3.72
2018-01-06T03:05:15.321Z,3.72
2018-01-06T03:06:25.474Z,3.64
2018-01-06T03:07:35.643Z,3.68
2018-01-06T03:08:45.790Z,3.75
2018-01-06T03:09:55.926Z,3.76
2018-01-06T03:11:06.089Z,3.65
2018-01-06T03:12:15.986Z,3.54
2018-01-06T03:13:26.121Z,3.55
2018-01-06T03:14:36.246Z,3.54
2018-01-06T03:15:46.388Z,3.58
2018-01-06T03:16:56.565Z,3.54
2018-01-06T03:18:06.836Z,3.57
2018-01-06T03:19:17.105Z,3.52
2018-01-06T03:20:27.324Z,3.62
2018-01-06T03:21:37.500Z,3.52
2018-01-06T03:22:47.618Z,3.58
2018-01-06T03:23:57.713Z,3.62
2018-01-06T03:25:07.830Z,3.55
2018-01-06T03:26:17.644Z,3.49
2018-01-06T03:27:27.760Z,3.55
2018-01-06T03:28:37.888Z,3.55
2018-01-06T03:29:48.042Z,3.54
2018-01-06T03:30:58.251Z,3.52
2018-01-06T03:32:08.426Z,3.5
2018-01-06T03:33:18.538Z,3.64
2018-01-06T03:34:28.655Z,3.52
2018-01-06T03:35:39.779Z,3.61
2018-01-06T03:36:49.977Z,3.5
2018-01-06T03:37:59.749Z,3.54
2018-01-06T03:39:09.934Z,3.57
2018-01-06T03:40:20.095Z,3.46
2018-01-06T03:41:30.236Z,3.54
2018-01-06T03:42:40.376Z,3.54
2018-01-06T03:43:50.487Z,3.57
2018-01-06T03:45:00.594Z,3.49
2018-01-06T03:46:10.715Z,3.55
2018-01-06T03:47:20.835Z,3.55
2018-01-06T03:48:30.954Z,3.55
2018-01-06T03:49:41.076Z,3.57
2018-01-06T03:50:51.255Z,3.59
2018-01-06T03:52:01.377Z,3.68
2018-01-06T03:53:11.509Z,3.72
2018-01-06T03:54:21.381Z,3.62
2018-01-06T03:55:31.608Z,3.58
2018-01-06T03:56:41.854Z,3.73
2018-01-06T03:57:51.993Z,3.72
2018-01-06T03:59:02.256Z,3.68
2018-01-06T04:00:12.463Z,3.72
2018-01-06T04:01:22.597Z,3.67
2018-01-06T04:02:32.820Z,3.68
2018-01-06T04:03:42.674Z,3.79
2018-01-06T04:04:52.814Z,3.65
2018-01-06T04:06:02.993Z,3.83
2018-01-06T04:07:13.263Z,3.69
2018-01-06T04:08:23.128Z,3.73
2018-01-06T04:09:33.297Z,3.73
2018-01-06T04:10:43.598Z,3.75
2018-01-06T04:11:53.826Z,3.8
2018-01-06T04:13:03.980Z,3.8
2018-01-06T04:14:14.126Z,3.9
2018-01-06T04:15:24.298Z,3.9
2018-01-06T04:16:34.491Z,3.9
2018-01-06T04:17:44.605Z,3.95
2018-01-06T04:18:54.738Z,3.9
2018-01-06T04:20:04.840Z,3.91
2018-01-06T04:21:14.615Z,3.93
2018-01-06T04:22:24.518Z,3.85
2018-01-06T04:23:34.495Z,3.82
2018-01-06T04:24:44.679Z,3.87
2018-01-06T04:25:54.571Z,3.8
2018-01-06T04:27:04.732Z,3.77
2018-01-06T04:28:14.890Z,3.72
2018-01-06T04:29:25.038Z,3.73
2018-01-06T04:30:35.234Z,3.67
2018-01-06T04:31:45.379Z,3.75
2018-01-06T04:32:55.496Z,3.69
2018-01-06T04:34:05.354Z,3.62
2018-01-06T04:35:15.306Z,3.68
2018-01-06T04:36:25.475Z,3.65
2018-01-06T04:37:35.727Z,3.61
2018-01-06T04:38:45.693Z,3.61
2018-01-06T04:39:55.842Z,3.55
2018-01-06T04:41:05.968Z,3.49
2018-01-06T04:42:15.850Z,3.37
2018-01-06T04:43:26.042Z,3.31
2018-01-06T04:44:36.154Z,3.29
2018-01-06T04:45:46.261Z,3.15
2018-01-06T04:46:56.483Z,3.21
2018-01-06T04:48:06.683Z,3.22
2018-01-06T04:49:16.884Z,3.13
2018-01-06T04:50:27.124Z,3.11
2018-01-06T04:51:37.324Z,3.07
2018-01-06T04:52:47.180Z,2.89
2018-01-06T04:53:57.359Z,2.92
2018-01-06T04:55:07.459Z,2.89
2018-01-06T04:56:17.618Z,2.92
2018-01-06T04:57:27.521Z,2.92
2018-01-06T04:58:37.728Z,2.84
2018-01-06T04:59:47.989Z,2.88
2018-01-06T05:00:58.225Z,2.85
2018-01-06T05:02:08.458Z,2.82
2018-01-06T05:03:18.309Z,2.91
2018-01-06T05:04:28.445Z,2.84
2018-01-06T05:05:38.548Z,2.79
2018-01-06T05:06:48.497Z,2.87
2018-01-06T05:07:58.638Z,2.88
2018-01-06T05:09:08.754Z,2.92
2018-01-06T05:10:18.887Z,3.02
2018-01-06T05:11:29.174Z,2.99
2018-01-06T05:12:39.364Z,3.08
2018-01-06T05:13:49.553Z,3.11
2018-01-06T05:14:59.680Z,3.21
2018-01-06T05:16:09.806Z,3.11
2018-01-06T05:17:19.673Z,3.19
2018-01-06T05:18:29.791Z,3.22
2018-01-06T05:19:39.933Z,3.21
2018-01-06T05:20:50.070Z,3.19
2018-01-06T05:22:00.203Z,3.16
2018-01-06T05:23:10.442Z,3.19
2018-01-06T05:24:20.660Z,3.25
2018-01-06T05:25:30.866Z,3.29
2018-01-06T05:26:40.742Z,3.28
2018-01-06T05:27:50.873Z,3.31
2018-01-06T05:29:00.994Z,3.26
2018-01-06T05:30:11.258Z,3.32
2018-01-06T05:31:21.422Z,3.42
2018-01-06T05:32:31.656Z,3.43
2018-01-06T05:33:41.846Z,3.42
2018-01-06T05:34:51.992Z,3.37
2018-01-06T05:36:02.097Z,3.39
2018-01-06T05:37:12.232Z,3.42
2018-01-06T05:38:22.380Z,3.42
2018-01-06T05:39:32.630Z,3.37
2018-01-06T05:40:42.833Z,3.42
2018-01-06T05:41:52.976Z,3.28
2018-01-06T05:43:03.115Z,3.31
2018-01-06T05:44:13.218Z,3.19
2018-01-06T05:45:23.356Z,3.15
2018-01-06T05:46:33.502Z,3.21
2018-01-06T05:47:43.726Z,3.1
2018-01-06T05:48:53.882Z,3.18
2018-01-06T05:50:04.012Z,3.21
2018-01-06T05:51:14.138Z,3.18
2018-01-06T05:52:24.263Z,3.11
2018-01-06T05:53:34.396Z,3.08
2018-01-06T05:54:44.515Z,3.02
2018-01-06T05:55:54.654Z,2.91
2018-01-06T05:57:04.928Z,3.04
2018-01-06T05:58:14.777Z,2.96
2018-01-06T05:59:24.891Z,3.02
2018-01-06T06:00:35.006Z,3.04
2018-01-06T06:01:45.224Z,3.11
2018-01-06T06:02:55.488Z,3.02
2018-01-06T06:04:05.616Z,3.06
2018-01-06T06:05:15.749Z,3.15
2018-01-06T06:06:25.864Z,3.1
2018-01-06T06:07:36.086Z,3.11
2018-01-06T06:08:46.207Z,3.13
2018-01-06T06:09:56.353Z,3.25
2018-01-06T06:11:07.530Z,3.22
2018-01-06T06:12:18.821Z,3.24
2018-01-06T06:13:28.961Z,3.16
2018-01-06T06:14:39.083Z,3.26
2018-01-06T06:15:49.452Z,3.22
2018-01-06T06:16:59.701Z,3.25
2018-01-06T06:18:09.901Z,3.25
2018-01-06T06:19:19.702Z,3.31
2018-01-06T06:20:29.552Z,3.37
2018-01-06T06:21:39.661Z,3.29
2018-01-06T06:22:49.919Z,3.34
2018-01-06T06:24:00.111Z,3.44
2018-01-06T06:25:10.339Z,3.37
2018-01-06T06:26:20.481Z,3.47
2018-01-06T06:27:30.666Z,3.34
2018-01-06T06:28:40.917Z,3.37
2018-01-06T06:29:51.042Z,3.43
2018-01-06T06:31:01.138Z,3.39
2018-01-06T06:32:10.995Z,3.43
2018-01-06T06:33:20.949Z,3.4
2018-01-06T06:34:31.210Z,3.39
2018-01-06T06:35:41.327Z,3.44
2018-01-06T06:36:51.454Z,3.31
2018-01-06T06:38:01.602Z,3.43
2018-01-06T06:39:11.725Z,3.52
2018-01-06T06:40:21.847Z,3.42
2018-01-06T06:41:32.058Z,3.52
2018-01-06T06:42:42.201Z,3.37
2018-01-06T06:43:52.346Z,3.37
2018-01-06T06:45:02.200Z,3.39
2018-01-06T06:46:12.051Z,3.29
2018-01-06T06:47:22.205Z,3.25
2018-01-06T06:48:31.974Z,3.26
2018-01-06T06:49:41.966Z,3.28
2018-01-06T06:50:52.145Z,3.25
2018-01-06T06:52:02.020Z,3.06
2018-01-06T06:53:12.139Z,3.06
2018-01-06T06:54:22.240Z,2.92
2018-01-06T06:55:32.365Z,3.06
2018-01-06T06:56:42.474Z,3.04
2018-01-06T06:57:52.588Z,3.02
2018-01-06T06:59:02.448Z,2.92
2018-01-06T07:00:12.578Z,2.97
2018-01-06T07:01:22.772Z,3
2018-01-06T07:02:32.968Z,2.89
2018-01-06T07:03:43.118Z,2.99
2018-01-06T07:04:53.386Z,2.92
2018-01-06T07:06:03.581Z,2.96
2018-01-06T07:07:13.807Z,3.02
2018-01-06T07:08:23.954Z,3.02
2018-01-06T07:09:34.068Z,3.08
2018-01-06T07:10:44.188Z,2.94
2018-01-06T07:11:54.319Z,2.89
2018-01-06T07:13:04.488Z,2.89
2018-01-06T07:14:14.645Z,2.82
2018-01-06T07:15:24.867Z,2.85
2018-01-06T07:16:35.097Z,2.89
2018-01-06T07:17:45.245Z,2.78
2018-01-06T07:18:55.363Z,2.78
2018-01-06T07:20:05.476Z,2.74
2018-01-06T07:21:15.606Z,2.64
2018-01-06T07:22:25.762Z,2.56
2018-01-06T07:23:35.894Z,2.64
2018-01-06T07:24:46.041Z,2.53
2018-01-06T07:25:56.156Z,2.48
2018-01-06T07:27:06.288Z,2.46
2018-01-06T07:28:16.431Z,2.52
2018-01-06T07:29:26.643Z,2.45
2018-01-06T07:30:36.855Z,2.44
2018-01-06T07:31:47.185Z,2.44
2018-01-06T07:32:57.301Z,2.33
2018-01-06T07:34:07.545Z,2.42
2018-01-06T07:35:17.717Z,2.36
2018-01-06T07:36:27.939Z,2.45
2018-01-06T07:37:38.118Z,2.39
2018-01-06T07:38:48.377Z,2.44
2018-01-06T07:39:58.306Z,2.46
2018-01-06T07:41:08.487Z,2.41
2018-01-06T07:42:18.640Z,2.41
2018-01-06T07:43:28.792Z,2.41
2018-01-06T07:44:38.685Z,2.44
2018-01-06T07:45:48.838Z,2.45
2018-01-06T07:46:58.968Z,2.52
2018-01-06T07:48:09.157Z,2.45
2018-01-06T07:49:19.291Z,2.46
2018-01-06T07:50:29.428Z,2.49
2018-01-06T07:51:39.584Z,2.56
2018-01-06T07:52:49.711Z,2.52
2018-01-06T07:53:59.834Z,2.6
2018-01-06T07:55:09.945Z,2.55
2018-01-06T07:56:20.135Z,2.59
2018-01-06T07:57:30.268Z,2.74
2018-01-06T07:58:40.454Z,2.74
2018-01-06T07:59:50.570Z,2.81
2018-01-06T08:01:00.711Z,2.91
2018-01-06T08:02:10.912Z,2.89
2018-01-06T08:03:21.112Z,3
2018-01-06T08:04:31.234Z,3.13
2018-01-06T08:05:41.457Z,3.18
2018-01-06T08:06:51.360Z,3.21
2018-01-06T08:08:01.552Z,3.22
2018-01-06T08:09:11.702Z,3.26
2018-01-06T08:10:21.881Z,3.24
2018-01-06T08:11:32.040Z,3.28
2018-01-06T08:12:42.220Z,3.39
2018-01-06T08:13:52.370Z,3.32
2018-01-06T08:15:02.502Z,3.28
2018-01-06T08:16:12.658Z,3.39
2018-01-06T08:17:22.829Z,3.16
2018-01-06T08:18:33.028Z,3.21
2018-01-06T08:19:42.900Z,3.08
2018-01-06T08:20:53.086Z,3.04
2018-01-06T08:22:03.198Z,2.92
2018-01-06T08:23:13.376Z,2.92
2018-01-06T08:24:23.629Z,2.91
2018-01-06T08:25:33.767Z,2.87
2018-01-06T08:26:43.973Z,2.84
2018-01-06T08:27:54.189Z,2.85
2018-01-06T08:29:04.318Z,2.85
2018-01-06T08:30:14.176Z,2.84
2018-01-06T08:31:24.495Z,2.81
2018-01-06T08:32:34.653Z,2.79
2018-01-06T08:33:44.960Z,2.84
2018-01-06T08:34:55.116Z,2.82
2018-01-06T08:36:05.320Z,2.87
2018-01-06T08:37:15.578Z,2.91
2018-01-06T08:38:25.758Z,2.87
2018-01-06T08:39:35.947Z,2.84
2018-01-06T08:40:46.145Z,3
2018-01-06T08:41:56.087Z,2.96
2018-01-06T08:43:06.230Z,2.91
2018-01-06T08:44:16.375Z,2.94
2018-01-06T08:45:26.512Z,2.96
2018-01-06T08:46:36.662Z,2.97
2018-01-06T08:47:46.826Z,3.08
2018-01-06T08:48:56.981Z,3.04
2018-01-06T08:50:07.122Z,2.96
2018-01-06T08:51:17.260Z,2.97
2018-01-06T08:52:27.106Z,3.04
2018-01-06T08:53:37.225Z,2.87
2018-01-06T08:54:47.408Z,3.07
2018-01-06T08:55:57.602Z,3.1
2018-01-06T08:57:07.864Z,2.92
2018-01-06T08:58:18.032Z,3.02
2018-01-06T08:59:28.205Z,3
2018-01-06T09:00:38.340Z,3.02
2018-01-06T09:01:48.463Z,3.06
2018-01-06T09:02:58.628Z,3.08
2018-01-06T09:04:08.826Z,3.15
2018-01-06T09:05:18.993Z,3.22
2018-01-06T09:06:29.329Z,3.32
2018-01-06T09:07:39.567Z,3.4
2018-01-06T09:08:49.704Z,3.31
2018-01-06T09:09:59.873Z,3.42
2018-01-06T09:11:10.021Z,3.37
2018-01-06T09:12:20.218Z,3.36
2018-01-06T09:13:30.370Z,3.4
2018-01-06T09:14:40.230Z,3.4
2018-01-06T09:15:50.457Z,3.39
2018-01-06T09:17:01.588Z,3.43
2018-01-06T09:18:11.498Z,3.5
2018-01-06T09:19:21.679Z,3.59
2018-01-06T09:20:31.852Z,3.57
2018-01-06T09:21:42.055Z,3.64
2018-01-06T09:22:52.229Z,3.68
2018-01-06T09:24:02.401Z,3.72
2018-01-06T09:25:12.365Z,3.76
2018-01-06T09:26:22.497Z,3.76
2018-01-06T09:27:32.694Z,3.87
2018-01-06T09:28:42.850Z,3.77
2018-01-06T09:29:52.799Z,3.87
2018-01-06T09:31:03.008Z,3.97
2018-01-06T09:32:13.182Z,4.01
2018-01-06T09:33:23.323Z,4
2018-01-06T09:34:33.516Z,4.04
2018-01-06T09:35:43.760Z,4.08
2018-01-06T09:36:53.960Z,4.05
2018-01-06T09:38:04.168Z,4.15
2018-01-06T09:39:14.344Z,4.09
2018-01-06T09:40:24.506Z,4.2
2018-01-06T09:41:34.392Z,4.2
2018-01-06T09:42:44.319Z,4.23
2018-01-06T09:43:54.520Z,4.22
2018-01-06T09:45:04.680Z,4.22
2018-01-06T09:46:14.838Z,4.23
2018-01-06T09:47:25.071Z,4.2
2018-01-06T09:48:35.220Z,4.18
2018-01-06T09:49:45.252Z,4.19
2018-01-06T09:50:55.692Z,4.23
2018-01-06T09:52:05.972Z,4.28
2018-01-06T09:53:16.119Z,4.34
2018-01-06T09:54:26.391Z,4.27
2018-01-06T09:55:36.587Z,4.27
2018-01-06T09:56:46.808Z,4.34
2018-01-06T09:57:57.080Z,4.4
2018-01-06T09:59:07.276Z,4.33
2018-01-06T10:00:17.554Z,4.43
2018-01-06T10:01:27.708Z,4.46
2018-01-06T10:02:37.903Z,4.43
2018-01-06T10:03:48.090Z,4.38
2018-01-06T10:04:58.314Z,4.41
2018-01-06T10:06:08.538Z,4.41
2018-01-06T10:07:18.772Z,4.49
2018-01-06T10:08:28.940Z,4.47
2018-01-06T10:09:39.108Z,4.41
2018-01-06T10:10:49.248Z,4.53
2018-01-06T10:11:59.412Z,4.55
2018-01-06T10:13:09.558Z,4.71
2018-01-06T10:14:19.724Z,4.85
2018-01-06T10:15:29.864Z,5.04
2018-01-06T10:16:40.079Z,5.14
2018-01-06T10:17:50.301Z,5.33
2018-01-06T10:19:00.202Z,5.49
2018-01-06T10:20:10.334Z,5.58
2018-01-06T10:21:20.492Z,5.74
2018-01-06T10:22:30.690Z,5.75
2018-01-06T10:23:40.948Z,5.88
2018-01-06T10:24:51.188Z,5.94
2018-01-06T10:26:01.340Z,6.02
2018-01-06T10:27:11.660Z,6.27
2018-01-06T10:28:21.870Z,6.48
2018-01-06T10:29:32.057Z,6.6
2018-01-06T10:30:42.229Z,6.75
2018-01-06T10:31:52.390Z,6.9
2018-01-06T10:33:02.584Z,6.97
2018-01-06T10:34:12.814Z,7.18
2018-01-06T10:35:23.031Z,7.22
2018-01-06T10:36:33.241Z,7.26
2018-01-06T10:37:43.399Z,7.18
2018-01-06T10:38:53.696Z,7.18
2018-01-06T10:40:03.904Z,7.11
2018-01-06T10:41:14.215Z,6.97
2018-01-06T10:42:24.405Z,6.85
2018-01-06T10:43:34.635Z,6.77
2018-01-06T10:44:44.867Z,6.56
2018-01-06T10:45:55.156Z,6.62
2018-01-06T10:47:05.406Z,6.52
2018-01-06T10:48:15.609Z,6.45
2018-01-06T10:49:25.767Z,6.3
2018-01-06T10:50:35.979Z,6.16
2018-01-06T10:51:46.250Z,6.16
2018-01-06T10:52:56.483Z,6.11
2018-01-06T10:54:06.730Z,6.09
2018-01-06T10:55:16.721Z,5.96
2018-01-06T10:56:26.865Z,5.9
2018-01-06T10:57:37.104Z,5.9
2018-01-06T10:58:47.297Z,5.86
2018-01-06T10:59:57.451Z,5.8
2018-01-06T11:01:07.597Z,5.88
2018-01-06T11:02:17.780Z,5.84
2018-01-06T11:03:27.980Z,5.75
2018-01-06T11:04:38.154Z,5.75
2018-01-06T11:05:48.328Z,5.83
2018-01-06T11:06:58.622Z,5.94
2018-01-06T11:08:08.771Z,5.88
2018-01-06T11:09:18.932Z,5.79
2018-01-06T11:10:29.071Z,5.82
2018-01-06T11:11:39.264Z,5.93
2018-01-06T11:12:49.466Z,5.93
2018-01-06T11:13:59.620Z,5.86
2018-01-06T11:15:09.824Z,5.88
2018-01-06T11:16:19.984Z,5.8
2018-01-06T11:17:30.188Z,5.9
2018-01-06T11:18:40.383Z,5.94
2018-01-06T11:19:50.670Z,5.96
2018-01-06T11:21:00.584Z,5.96
2018-01-06T11:22:10.799Z,6.01
2018-01-06T11:23:20.970Z,5.99
2018-01-06T11:24:31.161Z,5.98
2018-01-06T11:25:40.845Z,6.06
2018-01-06T11:26:51.033Z,6.11
2018-01-06T11:28:01.196Z,6.14
2018-01-06T11:29:11.475Z,6.16
2018-01-06T11:30:21.652Z,6.14
2018-01-06T11:31:31.909Z,6.16
2018-01-06T11:32:41.726Z,6.27
2018-01-06T11:33:51.886Z,6.41
2018-01-06T11:35:02.063Z,6.41
2018-01-06T11:36:12.263Z,6.56
2018-01-06T11:37:22.432Z,6.46
2018-01-06T11:38:32.718Z,6.53
2018-01-06T11:39:42.937Z,6.56
2018-01-06T11:40:53.167Z,6.56
2018-01-06T11:42:03.366Z,6.57
2018-01-06T11:43:13.579Z,6.56
2018-01-06T11:44:23.761Z,6.56
2018-01-06T11:45:34.074Z,6.53
2018-01-06T11:46:44.247Z,6.53
2018-01-06T11:47:54.443Z,6.53
2018-01-06T11:49:04.609Z,6.54
2018-01-06T11:50:14.526Z,6.63
2018-01-06T11:51:24.678Z,6.62
2018-01-06T11:52:34.930Z,6.64
2018-01-06T11:53:45.177Z,6.62
2018-01-06T11:54:55.381Z,6.75
2018-01-06T11:56:05.345Z,6.71
2018-01-06T11:57:15.518Z,6.74
2018-01-06T11:58:25.702Z,6.77
2018-01-06T11:59:35.896Z,6.69
2018-01-06T12:00:46.062Z,6.64
2018-01-06T12:01:56.261Z,6.63
2018-01-06T12:03:06.402Z,6.53
2018-01-06T12:04:16.598Z,6.49
2018-01-06T12:05:26.819Z,6.59
2018-01-06T12:06:36.970Z,6.53
2018-01-06T12:07:47.168Z,6.46
2018-01-06T12:08:57.376Z,6.49
2018-01-06T12:10:07.379Z,6.57
2018-01-06T12:11:17.560Z,6.66
2018-01-06T12:12:27.790Z,6.54
2018-01-06T12:13:38.028Z,6.64
2018-01-06T12:14:48.246Z,6.74
2018-01-06T12:15:58.474Z,6.74
2018-01-06T12:17:08.701Z,6.81
2018-01-06T12:18:18.896Z,6.79
2018-01-06T12:19:29.096Z,6.81
2018-01-06T12:20:39.313Z,6.89
2018-01-06T12:21:49.558Z,6.77
2018-01-06T12:22:59.766Z,6.85
2018-01-06T12:24:10.093Z,6.82
2018-01-06T12:25:20.239Z,6.85
2018-01-06T12:26:30.467Z,6.85
2018-01-06T12:27:40.633Z,6.9
2018-01-06T12:28:50.859Z,6.87
2018-01-06T12:30:01.072Z,6.84
2018-01-06T12:31:11.299Z,6.81
2018-01-06T12:32:21.517Z,6.81
2018-01-06T12:33:31.748Z,6.89
2018-01-06T12:34:42.013Z,6.79
2018-01-06T12:35:52.266Z,6.82
2018-01-06T12:37:02.493Z,6.75
2018-01-06T12:38:12.662Z,6.77
2018-01-06T12:39:22.876Z,6.79
2018-01-06T12:40:33.086Z,6.72
2018-01-06T12:41:43.333Z,6.72
2018-01-06T12:42:53.550Z,6.72
2018-01-06T12:44:03.637Z,6.66
2018-01-06T12:45:13.913Z,6.6
2018-01-06T12:46:24.073Z,6.66
2018-01-06T12:47:34.296Z,6.63
2018-01-06T12:48:44.515Z,6.57
2018-01-06T12:49:54.744Z,6.69
2018-01-06T12:51:05.036Z,6.56
2018-01-06T12:52:15.083Z,6.69
2018-01-06T12:53:25.062Z,6.59
2018-01-06T12:54:35.246Z,6.63
2018-01-06T12:55:45.544Z,6.53
2018-01-06T12:56:55.723Z,6.52
2018-01-06T12:58:05.925Z,6.52
2018-01-06T12:59:16.104Z,6.52
2018-01-06T13:00:26.377Z,6.52
2018-01-06T13:01:36.603Z,6.54
2018-01-06T13:02:46.809Z,6.66
2018-01-06T13:03:56.977Z,6.53
2018-01-06T13:05:07.191Z,6.56
2018-01-06T13:06:17.121Z,6.53
2018-01-06T13:07:27.278Z,6.48
2018-01-06T13:08:37.435Z,6.49
2018-01-06T13:09:47.405Z,6.42
2018-01-06T13:10:57.607Z,6.42
2018-01-06T13:12:07.903Z,6.42
2018-01-06T13:13:18.081Z,6.34
2018-01-06T13:14:28.412Z,6.34
2018-01-06T13:15:38.675Z,6.31
2018-01-06T13:16:48.853Z,6.34
2018-01-06T13:17:59.302Z,6.27
2018-01-06T13:19:09.535Z,6.3
2018-01-06T13:20:19.684Z,6.2
2018-01-06T13:21:29.953Z,6.23
2018-01-06T13:22:40.126Z,6.19
2018-01-06T13:23:50.264Z,6.2
2018-01-06T13:25:00.511Z,6.16
2018-01-06T13:26:10.723Z,6.09
2018-01-06T13:27:20.940Z,6.05
2018-01-06T13:28:31.172Z,6.06
2018-01-06T13:29:41.386Z,6.12
2018-01-06T13:30:51.689Z,6.11
2018-01-06T13:32:01.881Z,6.05
2018-01-06T13:33:12.100Z,6.05
2018-01-06T13:34:22.301Z,6.03
2018-01-06T13:35:32.457Z,6.08
2018-01-06T13:36:42.616Z,6.06
2018-01-06T13:37:52.956Z,6.06
2018-01-06T13:39:03.148Z,6.03
2018-01-06T13:40:13.446Z,6.11
2018-01-06T13:41:23.710Z,6.01
2018-01-06T13:42:33.871Z,6.06
2018-01-06T13:43:44.075Z,5.96
2018-01-06T13:44:54.256Z,5.98
2018-01-06T13:46:04.488Z,6.01
2018-01-06T13:47:14.702Z,5.9
2018-01-06T13:48:24.944Z,5.91
2018-01-06T13:49:34.866Z,5.8
2018-01-06T13:50:45.097Z,5.84
2018-01-06T13:51:55.246Z,5.93
2018-01-06T13:53:05.419Z,5.77
2018-01-06T13:54:15.622Z,5.99
2018-01-06T13:55:25.559Z,5.9
2018-01-06T13:56:35.740Z,5.75
2018-01-06T13:57:45.939Z,5.8
2018-01-06T13:58:56.175Z,5.8
2018-01-06T14:00:06.411Z,5.77
2018-01-06T14:01:16.615Z,5.74
2018-01-06T14:02:26.820Z,5.83
2018-01-06T14:03:37.023Z,5.94
2018-01-06T14:04:47.187Z,5.75
2018-01-06T14:05:57.417Z,5.84
2018-01-06T14:07:07.643Z,5.91
2018-01-06T14:08:17.930Z,5.93
2018-01-06T14:09:28.102Z,5.96
2018-01-06T14:10:38.292Z,5.99
2018-01-06T14:11:48.506Z,5.86
2018-01-06T14:12:58.713Z,5.88
2018-01-06T14:14:09.035Z,5.83
2018-01-06T14:15:19.182Z,5.9
2018-01-06T14:16:29.426Z,5.77
2018-01-06T14:17:39.564Z,5.8
2018-01-06T14:18:49.783Z,5.83
2018-01-06T14:19:59.966Z,5.68
2018-01-06T14:21:10.175Z,5.68
2018-01-06T14:22:20.347Z,5.71
2018-01-06T14:23:30.251Z,5.64
2018-01-06T14:24:40.160Z,5.71
2018-01-06T14:25:50.310Z,5.65
2018-01-06T14:27:00.501Z,5.68
2018-01-06T14:28:10.711Z,5.69
2018-01-06T14:29:20.917Z,5.72
2018-01-06T14:30:31.070Z,5.68
2018-01-06T14:31:41.243Z,5.67
2018-01-06T14:32:51.524Z,5.67
2018-01-06T14:34:01.692Z,5.72
2018-01-06T14:35:11.908Z,5.67
2018-01-06T14:36:22.090Z,5.68
2018-01-06T14:37:37.279Z,5.67
2018-01-06T14:38:47.558Z,5.68
2018-01-06T14:39:57.719Z,5.59
2018-01-06T14:41:07.933Z,5.61
2018-01-06T14:42:18.095Z,5.59
2018-01-06T14:43:28.329Z,5.58
2018-01-06T14:44:38.525Z,5.53
2018-01-06T14:45:48.703Z,5.56
2018-01-06T14:46:59.027Z,5.5
2018-01-06T14:48:09.369Z,5.47
2018-01-06T14:49:19.602Z,5.47
2018-01-06T14:50:29.740Z,5.51
2018-01-06T14:51:39.905Z,5.43
2018-01-06T14:52:50.072Z,5.46
2018-01-06T14:54:00.264Z,5.47
2018-01-06T14:55:10.468Z,5.47
2018-01-06T14:56:20.661Z,5.5
2018-01-06T14:57:30.937Z,5.46
2018-01-06T14:58:41.206Z,5.5
2018-01-06T14:59:52.413Z,5.5
2018-01-06T15:01:02.311Z,5.4
2018-01-06T15:02:12.472Z,5.5
2018-01-06T15:03:22.712Z,5.46
2018-01-06T15:04:32.758Z,5.43
2018-01-06T15:05:42.955Z,5.5
2018-01-06T15:06:53.120Z,5.43
2018-01-06T15:08:03.377Z,5.43
2018-01-06T15:09:13.561Z,5.5
2018-01-06T15:10:23.800Z,5.5
2018-01-06T15:11:34.151Z,5.5
2018-01-06T15:12:44.355Z,5.46
2018-01-06T15:13:54.535Z,5.43
2018-01-06T15:15:04.744Z,5.38
2018-01-06T15:16:15.025Z,5.44
2018-01-06T15:17:25.266Z,5.41
2018-01-06T15:18:35.449Z,5.38
2018-01-06T15:19:45.735Z,5.41
2018-01-06T15:20:55.890Z,5.46
2018-01-06T15:22:06.052Z,5.4
2018-01-06T15:23:16.270Z,5.38
2018-01-06T15:24:26.647Z,5.43
2018-01-06T15:25:36.881Z,5.35
2018-01-06T15:26:47.085Z,5.35
2018-01-06T15:27:57.283Z,5.41
2018-01-06T15:29:07.459Z,5.4
2018-01-06T15:30:17.258Z,5.31
2018-01-06T15:31:27.482Z,5.32
2018-01-06T15:32:37.699Z,5.32
2018-01-06T15:33:47.973Z,5.41
2018-01-06T15:34:58.201Z,5.38
2018-01-06T15:36:08.392Z,5.4
2018-01-06T15:37:18.581Z,5.36